createdAt,value
2024-01-15T00:04:29.706Z,9.60
2024-01-15T00:09:36.729Z,8.40
2024-01-15T00:14:44.862Z,10.38
2024-01-15T00:19:51.101Z,10.33
2024-01-15T00:24:57.544Z,8.57
2024-01-15T00:30:06.215Z,10.52
2024-01-15T00:35:12.977Z,8.68
2024-01-15T00:40:19.301Z,9.00
2024-01-15T00:45:27.292Z,7.85
2024-01-15T00:50:33.675Z,9.23
2024-01-15T00:55:40.157Z,10.43
2024-01-15T01:00:48.334Z,11.48
2024-01-15T01:05:55.026Z,7.30
2024-01-15T01:11:01.280Z,6.60
2024-01-15T01:16:10.110Z,7.32
2024-01-15T01:21:16.574Z,8.52
2024-01-15T01:26:23.389Z,8.90
2024-01-15T01:31:31.400Z,10.32
2024-01-15T01:36:38.059Z,7.97
2024-01-15T01:41:44.430Z,8.15
2024-01-15T01:46:52.403Z,9.10
2024-01-15T01:52:02.776Z,9.97
2024-01-15T01:57:14.020Z,12.70
2024-01-15T02:02:23.330Z,12.35
2024-01-15T02:07:30.347Z,11.40
2024-01-15T02:12:37.275Z,10.05
2024-01-15T02:18:04.970Z,12.15
2024-01-15T02:23:15.236Z,9.60
2024-01-15T02:28:21.810Z,12.52
2024-01-15T02:33:28.382Z,10.00
2024-01-15T02:38:36.255Z,8.25
2024-01-15T02:43:42.609Z,9.55
2024-01-15T02:48:49.093Z,9.02
2024-01-15T02:53:57.466Z,10.57
2024-01-15T02:59:05.372Z,9.23
2024-01-15T03:04:11.861Z,10.35
2024-01-15T03:09:19.731Z,10.90
2024-01-15T03:14:27.583Z,10.65
2024-01-15T03:19:33.919Z,9.73
2024-01-15T03:24:41.544Z,10.45
2024-01-15T03:29:47.727Z,9.27
2024-01-15T03:34:54.208Z,10.00
2024-01-15T03:40:05.860Z,9.65
2024-01-15T03:45:12.561Z,10.63
2024-01-15T03:50:19.039Z,9.38
2024-01-15T03:55:26.832Z,10.73
2024-01-15T04:00:33.293Z,14.73
2024-01-15T04:05:39.525Z,12.70
2024-01-15T04:10:47.271Z,10.20
2024-01-15T04:15:53.699Z,12.23
2024-01-15T04:21:00.004Z,11.88
2024-01-15T04:26:08.049Z,10.43
2024-01-15T04:31:25.939Z,6.83
2024-01-15T04:36:32.296Z,10.83
2024-01-15T04:41:40.103Z,10.43
2024-01-15T04:46:46.428Z,9.75
2024-01-15T04:51:52.903Z,10.50
2024-01-15T04:57:02.284Z,9.87
2024-01-15T05:02:08.836Z,8.88
2024-01-15T05:07:15.114Z,10.02
2024-01-15T05:12:22.762Z,8.60
2024-01-15T05:17:28.929Z,8.93
2024-01-15T05:22:35.269Z,9.23
2024-01-15T05:27:43.109Z,7.82
2024-01-15T05:32:49.468Z,9.88
2024-01-15T05:37:56.049Z,9.95
2024-01-15T05:43:03.776Z,8.90
2024-01-15T05:48:10.164Z,8.57
2024-01-15T05:53:16.746Z,9.98
2024-01-15T05:58:24.385Z,9.65
2024-01-15T06:03:30.986Z,8.80
2024-01-15T06:08:37.708Z,9.43
2024-01-15T06:13:45.461Z,9.80
2024-01-15T06:18:51.726Z,9.07
2024-01-15T06:24:00.220Z,9.10
2024-01-15T06:29:07.842Z,8.48
2024-01-15T06:34:14.245Z,11.75
2024-01-15T06:39:20.632Z,8.90
2024-01-15T06:44:29.023Z,8.10
2024-01-15T06:49:35.278Z,7.97
2024-01-15T06:54:41.387Z,8.75
2024-01-15T06:59:49.024Z,8.75
2024-01-15T07:04:55.196Z,8.23
2024-01-15T07:10:01.759Z,8.30
2024-01-15T07:15:12.014Z,8.52
2024-01-15T07:20:20.847Z,8.80
2024-01-15T07:30:35.456Z,6.82
2024-01-15T07:35:41.918Z,7.30
2024-01-15T07:40:50.894Z,7.85
2024-01-15T07:45:59.134Z,8.68
2024-01-15T07:51:05.664Z,8.50
2024-01-15T07:56:13.392Z,8.38
2024-01-15T08:01:22.063Z,7.88
2024-01-15T08:06:28.538Z,7.20
2024-01-15T08:11:35.614Z,8.00
2024-01-15T08:16:45.197Z,6.78
2024-01-15T08:21:51.612Z,12.93
2024-01-15T08:26:57.995Z,5.38
2024-01-15T08:32:06.032Z,6.20
2024-01-15T08:37:12.378Z,6.17
2024-01-15T08:42:18.561Z,7.00
2024-01-15T08:47:27.407Z,7.60
2024-01-15T08:57:39.547Z,7.18
2024-01-15T09:02:47.793Z,7.28
2024-01-15T09:07:54.444Z,10.57
2024-01-15T09:13:01.800Z,8.35
2024-01-15T09:18:09.825Z,8.25
2024-01-15T09:23:16.230Z,7.33
2024-01-15T09:28:22.640Z,6.68
2024-01-15T09:33:30.648Z,8.95
2024-01-15T09:38:37.026Z,7.43
2024-01-15T09:43:43.744Z,6.32
2024-01-15T09:48:51.500Z,10.80
2024-01-15T09:54:00.082Z,7.40
2024-01-15T09:59:06.864Z,8.05
2024-01-15T10:04:15.528Z,10.32
2024-01-15T10:09:22.422Z,5.85
2024-01-15T10:14:28.621Z,6.97
2024-01-15T10:19:36.605Z,7.85
2024-01-15T10:24:44.477Z,14.57
2024-01-15T10:29:50.966Z,17.67
2024-01-15T10:34:59.601Z,13.52
2024-01-15T10:40:07.754Z,13.82
2024-01-15T10:45:14.045Z,5.77
2024-01-15T10:50:22.464Z,7.97
2024-01-15T10:55:30.454Z,9.57
2024-01-15T11:00:41.087Z,9.07
2024-01-15T11:05:50.275Z,6.78
2024-01-15T11:16:05.854Z,6.88
2024-01-15T11:21:31.437Z,7.82
2024-01-15T11:26:40.714Z,9.25
2024-01-15T11:32:19.162Z,7.68
2024-01-15T11:37:28.947Z,8.88
2024-01-15T11:42:44.524Z,9.15
2024-01-15T11:48:17.599Z,6.90
2024-01-15T11:53:39.647Z,9.77
2024-01-15T11:58:48.306Z,8.98
2024-01-15T12:03:54.852Z,11.02
2024-01-15T12:09:11.775Z,7.47
2024-01-15T12:14:18.229Z,9.02
2024-01-15T12:19:25.845Z,7.75
2024-01-15T12:24:33.943Z,8.40
2024-01-15T12:29:41.794Z,8.57
2024-01-15T12:34:48.235Z,11.48
2024-01-15T12:39:56.806Z,8.90
2024-01-15T12:45:04.923Z,8.98
2024-01-15T12:50:20.076Z,11.03
2024-01-15T12:55:29.972Z,7.18
2024-01-15T13:00:36.224Z,9.60
2024-01-15T13:05:43.881Z,8.40
2024-01-15T13:10:53.348Z,7.72
2024-01-15T13:15:59.529Z,6.90
2024-01-15T13:21:06.114Z,8.82
2024-01-15T13:26:17.421Z,7.45
2024-01-15T13:31:24.293Z,9.02
2024-01-15T13:36:30.686Z,9.85
2024-01-15T13:41:39.097Z,8.63
2024-01-15T13:46:45.672Z,8.65
2024-01-15T13:51:52.261Z,9.70
2024-01-15T13:57:00.528Z,8.10
2024-01-15T14:02:07.824Z,7.07
2024-01-15T14:07:14.356Z,11.70
2024-01-15T14:12:22.164Z,8.18
2024-01-15T14:17:28.308Z,9.52
2024-01-15T14:22:34.656Z,7.20
2024-01-15T14:27:42.764Z,7.80
2024-01-15T14:32:49.549Z,4.57
2024-01-15T14:37:56.024Z,9.77
2024-01-15T14:43:04.772Z,8.45
2024-01-15T14:48:11.400Z,8.75
2024-01-15T14:53:18.636Z,11.48
2024-01-15T14:58:26.724Z,8.73
2024-01-15T15:03:34.357Z,9.60
2024-01-15T15:08:40.995Z,8.85
2024-01-15T15:13:49.201Z,8.18
2024-01-15T15:18:56.429Z,6.78
2024-01-15T15:24:03.639Z,7.15
2024-01-15T15:29:12.605Z,6.22
2024-01-15T15:34:19.731Z,7.32
2024-01-15T15:39:26.731Z,10.75
2024-01-15T15:44:34.749Z,12.63
2024-01-15T15:49:41.407Z,8.77
2024-01-15T15:54:48.489Z,8.98
2024-01-15T15:59:56.686Z,7.40
2024-01-15T16:05:06.581Z,7.95
2024-01-15T16:10:13.540Z,9.50
2024-01-15T16:15:25.932Z,4.38
2024-01-15T16:23:31.031Z,3.92
2024-01-15T16:25:59.882Z,2.75
2024-01-15T16:31:09.639Z,3.90
2024-01-15T16:36:23.942Z,1.73
2024-01-15T16:41:31.522Z,3.22
2024-01-15T16:46:39.478Z,2.72
2024-01-15T16:51:45.862Z,2.00
2024-01-15T16:56:53.069Z,2.38
2024-01-15T17:02:01.112Z,3.83
2024-01-15T17:07:07.574Z,1.67
2024-01-15T17:12:14.171Z,2.90
2024-01-15T17:17:23.056Z,4.88
2024-01-15T17:22:30.613Z,3.08
2024-01-15T17:27:37.466Z,2.03
2024-01-15T17:32:45.448Z,2.90
2024-01-15T17:37:51.907Z,2.83
2024-01-15T17:42:58.389Z,2.78
2024-01-15T17:48:07.487Z,2.10
2024-01-15T17:53:14.347Z,1.30
2024-01-15T17:58:21.109Z,2.53
2024-01-15T18:03:29.951Z,1.23
2024-01-15T18:13:47.129Z,3.47
2024-01-15T18:18:55.502Z,5.03
2024-01-15T18:24:02.107Z,1.03
2024-01-15T18:29:08.597Z,4.22
2024-01-15T18:34:16.633Z,3.67
2024-01-15T18:39:23.554Z,2.65
2024-01-15T18:44:30.944Z,3.25
2024-01-15T18:49:39.072Z,7.07
2024-01-15T18:54:45.464Z,3.00
2024-01-15T18:59:52.705Z,3.83
2024-01-15T19:05:00.695Z,4.80
2024-01-15T19:10:08.495Z,2.03
2024-01-15T19:15:16.834Z,1.92
2024-01-15T19:20:26.191Z,4.57
2024-01-15T19:25:32.975Z,1.40
2024-01-15T19:30:39.841Z,3.60
2024-01-15T19:35:48.562Z,2.42
2024-01-15T19:40:55.055Z,2.20
2024-01-15T19:46:01.720Z,1.95
2024-01-15T19:51:16.225Z,2.10
2024-01-15T19:56:23.049Z,2.38
2024-01-15T20:01:32.145Z,2.40
2024-01-15T20:06:40.453Z,4.43
2024-01-15T20:11:48.435Z,3.40
2024-01-15T20:16:55.020Z,4.37
2024-01-15T20:22:02.646Z,1.90
2024-01-15T20:27:09.139Z,1.95
2024-01-15T20:32:18.422Z,2.83
2024-01-15T20:37:25.995Z,2.17
2024-01-15T20:42:32.703Z,1.30
2024-01-15T20:47:39.519Z,7.47
2024-01-15T20:52:47.305Z,2.53
2024-01-15T20:57:53.801Z,5.72
2024-01-15T21:03:00.578Z,2.55
2024-01-15T21:08:09.838Z,2.72
2024-01-15T21:18:23.216Z,1.65
2024-01-15T21:23:32.728Z,2.60
2024-01-15T21:28:41.688Z,4.05
2024-01-15T21:33:48.439Z,1.85
2024-01-15T21:38:56.382Z,2.55
2024-01-15T21:44:07.874Z,2.67
2024-01-15T21:49:14.529Z,2.60
2024-01-15T21:54:22.367Z,1.20
2024-01-15T21:59:30.644Z,1.58
2024-01-15T22:04:39.020Z,2.55
2024-01-15T22:09:46.669Z,2.72
2024-01-15T22:14:53.030Z,4.60
2024-01-15T22:19:59.572Z,6.13
2024-01-15T22:25:08.980Z,4.82
2024-01-15T22:30:15.486Z,3.55
2024-01-15T22:35:21.714Z,2.25
2024-01-15T22:40:29.491Z,2.47
2024-01-15T22:45:35.898Z,4.63
2024-01-15T22:50:42.715Z,1.83
2024-01-15T22:55:50.526Z,1.75
2024-01-15T23:00:58.908Z,2.90
2024-01-15T23:06:05.451Z,1.42
2024-01-15T23:11:14.325Z,2.42
2024-01-15T23:16:21.714Z,2.17
2024-01-15T23:21:29.056Z,2.25
2024-01-15T23:26:36.728Z,1.63
2024-01-15T23:31:43.248Z,2.28
2024-01-15T23:36:49.506Z,1.80
2024-01-15T23:41:57.102Z,1.88
2024-01-15T23:47:03.510Z,2.78
2024-01-15T23:52:09.818Z,1.52
2024-01-15T23:57:18.153Z,1.98
